Time;durP1;ratioP1;P1;durP2;ratioP2;P2;SDS_P1;SDS_P2;PMS_P1;PMS_P2;Temp;Humidity;BMP_temperature;BMP_pressure;BME280_temperature;BME280_humidity;BME280_pressure;Samples;Min_cycle;Max_cycle;Signal;HPM_P1;HPM_P2
2023/02/19 00:00:56;;;;;;;12.40;4.90;;;;;;;2.61;87.00;99899.09;107469;1255;89895;-56
2023/02/19 00:03:58;;;;;;;10.20;4.20;;;;;;;2.63;87.04;99891.52;107455;1253;95272;-60
2023/02/19 00:06:37;;;;;;;15.10;7.30;;;;;;;2.64;87.04;99882.64;107442;1254;81276;-60
2023/02/19 00:09:17;;;;;;;12.30;5.90;;;;;;;2.65;86.87;99873.17;107520;1255;83160;-61
2023/02/19 00:11:59;;;;;;;12.90;5.30;;;;;;;2.68;86.78;99879.06;107479;1253;98618;-62
2023/02/19 00:14:39;;;;;;;8.60;4.30;;;;;;;2.71;86.69;99882.34;107502;1254;88976;-61
2023/02/19 00:17:18;;;;;;;12.80;4.90;;;;;;;2.75;86.62;99886.77;107471;1254;95681;-61
2023/02/19 00:19:56;;;;;;;12.30;5.40;;;;;;;2.69;86.63;99886.65;107415;1257;79777;-60
2023/02/19 00:22:42;;;;;;;12.00;5.20;;;;;;;2.68;86.58;99880.82;107462;1253;82254;-59
2023/02/19 00:25:19;;;;;;;9.30;5.00;;;;;;;2.68;86.53;99880.34;107500;1255;97680;-57
2023/02/19 00:27:57;;;;;;;11.50;4.00;;;;;;;2.68;86.39;99876.21;107441;1253;88874;-58
2023/02/19 00:30:34;;;;;;;11.70;4.90;;;;;;;2.68;86.36;99877.78;107480;1254;95418;-61
2023/02/19 00:33:22;;;;;;;8.60;3.50;;;;;;;2.70;86.37;99882.78;107438;1253;80398;-62
2023/02/19 00:36:01;;;;;;;11.50;4.60;;;;;;;2.69;86.12;99866.84;107511;1252;80415;-62
2023/02/19 00:38:43;;;;;;;9.20;3.50;;;;;;;2.72;86.26;99868.02;107485;1254;99784;-60
2023/02/19 00:41:29;;;;;;;10.60;4.20;;;;;;;2.79;86.17;99869.58;107473;1254;87547;-60
2023/02/19 00:44:10;;;;;;;14.30;4.20;;;;;;;2.84;86.15;99866.27;107347;1258;94326;-60
2023/02/19 00:46:53;;;;;;;9.10;4.20;;;;;;;2.87;86.16;99863.82;107328;1256;79416;-60
2023/02/19 00:49:33;;;;;;;11.80;4.40;;;;;;;2.87;86.03;99861.88;107361;1256;83249;-56
2023/02/19 00:52:17;;;;;;;8.10;3.20;;;;;;;2.89;85.84;99862.73;107306;1256;98527;-56
2023/02/19 00:55:00;;;;;;;9.00;2.80;;;;;;;2.90;85.88;99863.31;107305;1260;89369;-58
2023/02/19 00:57:36;;;;;;;9.60;3.90;;;;;;;2.94;85.93;99869.68;107344;1255;92619;-58
2023/02/19 01:00:13;;;;;;;9.60;4.00;;;;;;;2.97;85.69;99875.23;107346;1257;79309;-59
2023/02/19 01:02:48;;;;;;;10.60;5.30;;;;;;;3.01;85.53;99876.84;107346;1256;82258;-61
2023/02/19 01:05:24;;;;;;;13.90;6.50;;;;;;;3.01;85.56;99870.71;107332;1259;98972;-58
2023/02/19 01:08:08;;;;;;;11.20;5.50;;;;;;;3.01;85.42;99875.74;107337;1255;88142;-58
2023/02/19 01:10:51;;;;;;;10.20;3.80;;;;;;;3.01;85.27;99871.14;107314;1255;95550;-56
2023/02/19 01:13:32;;;;;;;7.00;3.60;;;;;;;2.99;85.14;99867.00;107327;1257;80745;-56
2023/02/19 01:16:15;;;;;;;9.70;4.10;;;;;;;2.98;85.18;99865.31;107338;1256;83543;-56
2023/02/19 01:18:58;;;;;;;9.80;3.90;;;;;;;3.01;84.99;99865.08;107211;1258;98574;-61
2023/02/19 01:21:41;;;;;;;9.30;4.30;;;;;;;3.02;84.99;99866.72;107365;1256;87302;-61
2023/02/19 01:24:30;;;;;;;12.10;4.70;;;;;;;3.03;85.01;99866.81;107343;1255;95256;-62
2023/02/19 01:27:17;;;;;;;17.30;4.40;;;;;;;3.03;85.27;99864.66;107342;1256;79641;-62
2023/02/19 01:30:00;;;;;;;6.90;3.00;;;;;;;3.03;85.12;99860.78;107355;1260;80568;-58
2023/02/19 01:32:44;;;;;;;6.70;2.70;;;;;;;3.03;85.04;99860.82;107345;1256;99574;-57
2023/02/19 01:35:23;;;;;;;8.40;3.50;;;;;;;3.00;84.94;99858.55;107348;1256;88058;-62
2023/02/19 01:38:06;;;;;;;10.40;5.50;;;;;;;3.02;85.06;99863.72;107330;1256;95431;-62
2023/02/19 01:40:43;;;;;;;10.80;3.90;;;;;;;3.04;85.12;99862.27;107315;1258;80940;-61
2023/02/19 01:43:23;;;;;;;8.10;3.20;;;;;;;3.04;84.91;99871.17;107450;1253;82810;-58
2023/02/19 01:46:03;;;;;;;9.90;3.60;;;;;;;3.07;85.07;99874.30;107482;1252;98780;-58
2023/02/19 01:48:43;;;;;;;10.40;4.40;;;;;;;3.07;85.08;99874.06;107471;1252;89329;-58
2023/02/19 01:51:21;;;;;;;12.70;4.90;;;;;;;3.06;85.03;99868.81;107494;1253;94368;-58
2023/02/19 01:54:04;;;;;;;8.60;3.90;;;;;;;3.08;84.93;99869.00;107460;1256;81070;-57
2023/02/19 01:56:51;;;;;;;14.10;6.80;;;;;;;3.08;85.10;99865.80;107482;1254;82319;-56
2023/02/19 01:59:34;;;;;;;15.80;5.20;;;;;;;3.09;84.95;99868.84;107474;1254;99882;-60
2023/02/19 02:02:10;;;;;;;9.20;4.00;;;;;;;3.09;84.84;99869.95;107475;1254;88991;-60
2023/02/19 02:04:52;;;;;;;8.30;3.60;;;;;;;3.11;84.88;99867.05;107472;1253;96583;-60
2023/02/19 02:10:30;;;;;;;7.20;3.30;;;;;;;3.07;84.95;99865.39;107543;1254;79912;-57
2023/02/19 02:13:15;;;;;;;7.60;3.50;;;;;;;3.06;84.90;99861.70;107460;1254;98145;-56
2023/02/19 02:15:58;;;;;;;;;;;;;;;3.06;84.79;99863.14;107492;1257;89799;-60
2023/02/19 02:18:49;;;;;;;8.60;3.80;;;;;;;3.05;84.80;99856.64;107269;1253;96309;-56
2023/02/19 02:22:00;;;;;;;6.10;3.30;;;;;;;3.02;84.74;99859.08;107383;1255;80563;-56
2023/02/19 02:25:19;;;;;;;11.00;5.40;;;;;;;3.01;84.75;99861.01;107449;1253;81206;-58
2023/02/19 02:28:20;;;;;;;14.80;6.60;;;;;;;3.06;84.81;99860.34;107471;1252;98785;-58
2023/02/19 02:31:00;;;;;;;12.70;7.40;;;;;;;3.09;84.92;99867.63;107499;1254;87978;-58
2023/02/19 02:33:45;;;;;;;13.20;6.20;;;;;;;3.12;84.80;99867.32;107324;1253;94800;-58
2023/02/19 02:36:31;;;;;;;10.10;5.00;;;;;;;3.16;84.99;99875.08;107380;1254;79278;-58
2023/02/19 02:39:15;;;;;;;7.60;4.10;;;;;;;3.18;84.89;99877.02;107428;1254;80443;-62
2023/02/19 02:47:53;;;;;;;9.50;4.60;;;;;;;3.17;84.87;99865.60;107374;1254;95460;-60
2023/02/19 02:50:50;;;;;;;7.70;4.30;;;;;;;3.20;84.76;99868.65;107383;1254;81379;-58
2023/02/19 02:56:34;;;;;;;8.20;3.30;;;;;;;3.23;84.86;99866.74;107348;1257;99136;-56
2023/02/19 02:59:22;;;;;;;5.30;2.80;;;;;;;3.23;84.99;99869.73;107387;1254;89140;-62
2023/02/19 03:02:17;;;;;;;7.90;3.20;;;;;;;3.24;84.84;99868.36;107390;1254;93610;-62
2023/02/19 03:08:04;;;;;;;10.50;3.20;;;;;;;3.24;84.83;99858.08;107365;1254;83292;-62
2023/02/19 03:10:51;;;;;;;6.40;2.70;;;;;;;3.23;84.54;99855.94;107321;1254;99812;-56
2023/02/19 03:19:37;;;;;;;5.90;2.90;;;;;;;3.05;84.67;99855.21;107374;1255;80411;-61
2023/02/19 03:22:23;;;;;;;5.60;2.40;;;;;;;3.00;84.69;99856.66;107373;1254;80737;-62
2023/02/19 03:28:09;;;;;;;9.40;2.80;;;;;;;2.83;84.73;99866.84;107370;1254;88340;-56
2023/02/19 03:30:52;;;;;;;5.70;3.10;;;;;;;2.81;84.91;99870.49;107373;1254;93005;-56
2023/02/19 03:33:31;;;;;;;7.60;2.70;;;;;;;2.77;84.93;99867.27;107329;1256;81866;-59
2023/02/19 03:36:14;;;;;;;8.00;2.60;;;;;;;2.73;84.93;99862.87;107398;1254;82363;-61
2023/02/19 03:39:03;;;;;;;4.80;2.50;;;;;;;2.68;84.84;99863.77;107252;1254;98759;-58
2023/02/19 03:41:55;;;;;;;5.60;2.60;;;;;;;2.60;85.02;99857.27;107336;1254;87649;-58
2023/02/19 03:44:47;;;;;;;8.50;2.80;;;;;;;2.53;84.99;99862.13;107389;1254;95633;-59
2023/02/19 03:47:33;;;;;;;8.90;3.10;;;;;;;2.42;84.91;99861.89;107365;1257;76992;-61
2023/02/19 03:50:20;;;;;;;7.30;3.10;;;;;;;2.33;85.11;99852.36;107404;1254;82476;-61
2023/02/19 03:53:11;;;;;;;6.90;3.30;;;;;;;2.30;85.04;99851.20;107391;1254;99139;-61
2023/02/19 03:56:02;;;;;;;8.40;3.20;;;;;;;2.22;85.07;99849.11;107361;1254;87226;-62
2023/02/19 03:58:51;;;;;;;9.80;3.30;;;;;;;2.11;85.11;99844.55;107367;1254;95453;-61
2023/02/19 04:01:36;;;;;;;9.20;3.20;;;;;;;2.04;85.21;99846.48;107342;1254;82046;-60
2023/02/19 04:04:22;;;;;;;7.80;3.00;;;;;;;2.00;85.33;99840.20;107361;1254;82860;-56
2023/02/19 04:07:05;;;;;;;7.50;3.10;;;;;;;1.96;85.44;99842.54;107376;1257;97578;-57
2023/02/19 04:09:51;;;;;;;8.00;2.70;;;;;;;1.92;85.39;99845.36;107372;1254;89000;-54
2023/02/19 04:12:32;;;;;;;12.70;3.10;;;;;;;1.90;85.52;99850.73;107340;1257;95310;-56
2023/02/19 04:15:20;;;;;;;7.40;3.10;;;;;;;1.87;85.71;99851.04;107393;1255;79500;-57
2023/02/19 04:18:04;;;;;;;7.10;2.90;;;;;;;1.85;85.69;99842.33;107350;1254;83172;-57
2023/02/19 04:20:44;;;;;;;7.10;2.80;;;;;;;1.84;85.71;99833.17;107358;1254;99862;-56
2023/02/19 04:23:28;;;;;;;5.80;3.00;;;;;;;1.83;85.89;99834.20;107366;1254;89033;-57
2023/02/19 04:26:09;;;;;;;9.00;3.10;;;;;;;1.81;85.81;99832.95;107356;1254;95385;-58
2023/02/19 04:28:46;;;;;;;7.60;2.70;;;;;;;1.77;85.84;99831.92;107383;1254;80587;-60
2023/02/19 04:31:34;;;;;;;9.10;2.90;;;;;;;1.72;85.78;99829.66;107379;1257;81768;-59
2023/02/19 04:34:20;;;;;;;8.80;3.00;;;;;;;1.73;85.86;99821.85;107234;1258;98210;-60
2023/02/19 04:37:05;;;;;;;9.80;2.80;;;;;;;1.69;85.93;99826.85;107377;1254;87184;-60
2023/02/19 04:39:45;;;;;;;6.90;3.00;;;;;;;1.66;86.03;99830.79;107375;1254;95608;-56
2023/02/19 04:42:28;;;;;;;6.60;2.40;;;;;;;1.71;86.05;99826.64;107403;1257;81289;-56
2023/02/19 04:45:09;;;;;;;8.30;2.50;;;;;;;1.75;86.15;99818.02;107376;1257;83066;-58
2023/02/19 04:47:49;;;;;;;6.10;2.90;;;;;;;1.81;86.25;99819.11;107424;1254;99469;-58
2023/02/19 04:50:33;;;;;;;8.90;2.60;;;;;;;1.83;86.23;99819.98;107372;1254;89045;-56
2023/02/19 04:53:13;;;;;;;10.40;2.60;;;;;;;1.80;86.20;99830.22;107120;1254;333501;-55
2023/02/19 04:55:56;;;;;;;8.80;3.40;;;;;;;1.77;86.29;99833.89;107376;1255;79842;-58
2023/02/19 04:58:36;;;;;;;6.20;2.60;;;;;;;1.71;86.10;99834.40;107360;1255;81783;-57
2023/02/19 05:01:15;;;;;;;6.40;3.10;;;;;;;1.68;86.26;99824.59;107386;1254;99543;-56
2023/02/19 05:03:57;;;;;;;7.20;2.70;;;;;;;1.67;86.31;99817.08;107374;1254;88944;-58
2023/02/19 05:06:39;;;;;;;7.80;2.90;;;;;;;1.66;86.21;99819.96;107341;1257;92996;-58
2023/02/19 05:09:16;;;;;;;6.40;2.50;;;;;;;1.64;86.38;99817.71;107356;1254;79497;-57
2023/02/19 05:11:58;;;;;;;8.80;3.70;;;;;;;1.63;86.42;99820.16;107350;1254;81549;-57
2023/02/19 05:14:41;;;;;;;8.90;3.00;;;;;;;1.61;86.50;99824.95;107371;1254;97935;-61
2023/02/19 05:17:26;;;;;;;5.00;2.70;;;;;;;1.61;86.61;99817.60;107370;1254;88583;-61
2023/02/19 05:20:09;;;;;;;6.00;3.40;;;;;;;1.63;86.63;99813.90;107400;1255;93386;-56
2023/02/19 05:22:48;;;;;;;6.10;3.20;;;;;;;1.63;86.59;99813.38;107399;1254;79769;-56
2023/02/19 05:25:28;;;;;;;7.70;3.20;;;;;;;1.64;86.63;99818.64;107374;1254;81642;-60
2023/02/19 05:28:19;;;;;;;7.50;3.40;;;;;;;1.62;86.53;99817.34;107367;1258;99196;-60
2023/02/19 05:31:07;;;;;;;11.30;3.50;;;;;;;1.64;86.60;99822.71;107375;1254;88072;-61
2023/02/19 05:33:49;;;;;;;9.60;3.40;;;;;;;1.65;86.69;99815.85;107333;1254;92528;-63
2023/02/19 05:36:29;;;;;;;;;;;;;;;1.67;86.77;99820.22;107355;1254;81704;-60
2023/02/19 05:39:16;;;;;;;10.50;4.60;;;;;;;1.75;86.87;99812.16;107423;1254;81601;-56
2023/02/19 05:42:01;;;;;;;7.20;3.30;;;;;;;1.82;86.99;99810.88;107341;1254;99467;-56
2023/02/19 05:44:46;;;;;;;10.20;3.60;;;;;;;1.87;87.03;99805.58;107377;1254;87089;-57
2023/02/19 05:47:30;;;;;;;9.10;3.70;;;;;;;1.92;87.11;99799.35;107345;1254;93637;-55
2023/02/19 05:50:08;;;;;;;8.20;3.60;;;;;;;1.94;87.04;99794.05;107336;1254;81992;-56
2023/02/19 05:52:46;;;;;;;9.70;3.50;;;;;;;1.96;87.18;99795.60;107385;1254;81652;-57
2023/02/19 05:55:27;;;;;;;9.00;3.60;;;;;;;2.00;87.15;99799.42;107404;1254;97749;-60
2023/02/19 05:58:11;;;;;;;7.10;3.30;;;;;;;2.04;87.12;99807.22;107400;1254;86221;-61
2023/02/19 06:00:54;;;;;;;11.20;4.80;;;;;;;2.10;86.97;99805.10;107357;1254;94704;-60
2023/02/19 06:03:34;;;;;;;11.70;4.90;;;;;;;2.12;86.95;99799.70;107383;1254;80512;-57
2023/02/19 06:06:13;;;;;;;10.20;4.70;;;;;;;2.12;87.07;99800.41;107382;1254;81216;-58
2023/02/19 06:08:50;;;;;;;9.00;3.70;;;;;;;2.15;86.87;99800.45;107397;1254;97877;-57
2023/02/19 06:11:29;;;;;;;10.80;4.50;;;;;;;2.18;86.96;99798.10;107253;1260;88884;-58
2023/02/19 06:14:12;;;;;;;10.70;4.10;;;;;;;2.23;87.02;99804.29;107367;1257;95448;-58
2023/02/19 06:16:58;;;;;;;8.70;5.00;;;;;;;2.29;86.99;99802.09;107365;1253;81588;-58
2023/02/19 06:19:38;;;;;;;9.50;4.60;;;;;;;2.35;86.94;99808.23;107377;1254;82928;-63
2023/02/19 06:22:23;;;;;;;12.20;4.80;;;;;;;2.39;86.88;99807.25;107391;1254;100145;-61
2023/02/19 06:25:03;;;;;;;6.80;4.00;;;;;;;2.42;86.78;99810.73;107401;1254;88047;-56
2023/02/19 06:27:43;;;;;;;11.00;4.50;;;;;;;2.41;86.87;99808.76;107343;1254;95481;-56
2023/02/19 06:30:25;;;;;;;7.40;3.90;;;;;;;2.42;86.86;99813.44;107355;1254;78282;-56
2023/02/19 06:33:02;;;;;;;11.80;4.90;;;;;;;2.45;86.59;99816.30;107371;1254;83044;-55
2023/02/19 06:35:45;;;;;;;11.90;5.40;;;;;;;2.43;86.65;99817.05;107402;1254;99996;-61
2023/02/19 06:38:27;;;;;;;9.20;4.60;;;;;;;2.48;86.62;99816.04;107386;1255;89161;-58
2023/02/19 06:41:10;;;;;;;9.20;4.60;;;;;;;2.52;86.60;99814.33;107349;1254;95536;-60
2023/02/19 06:43:49;;;;;;;12.00;4.80;;;;;;;2.62;86.59;99810.83;107405;1254;80852;-60
2023/02/19 06:46:28;;;;;;;10.60;4.20;;;;;;;2.70;86.35;99809.30;107395;1254;80914;-60
2023/02/19 06:49:11;;;;;;;10.10;4.70;;;;;;;2.77;86.46;99807.36;107391;1254;99146;-60
2023/02/19 06:51:53;;;;;;;11.30;4.50;;;;;;;2.84;86.58;99806.11;107382;1254;89453;-62
2023/02/19 06:54:35;;;;;;;10.20;4.70;;;;;;;2.90;86.31;99806.60;107399;1254;95275;-62
2023/02/19 06:57:15;;;;;;;9.30;4.10;;;;;;;2.95;86.27;99813.70;107371;1254;80988;-62
2023/02/19 07:00:00;;;;;;;9.60;4.50;;;;;;;2.99;86.08;99818.80;107404;1254;82419;-62
2023/02/19 07:02:40;;;;;;;11.10;4.60;;;;;;;2.96;86.07;99819.79;107376;1254;99743;-61
2023/02/19 07:05:15;;;;;;;9.20;4.30;;;;;;;3.02;86.03;99826.02;107386;1254;88798;-58
2023/02/19 07:07:56;;;;;;;7.10;4.00;;;;;;;3.06;85.86;99825.23;107398;1255;95795;-57
2023/02/19 07:10:38;;;;;;;9.60;3.70;;;;;;;3.03;85.94;99825.53;107344;1254;79534;-63
2023/02/19 07:13:24;;;;;;;10.60;4.80;;;;;;;2.98;85.89;99824.95;107395;1253;81721;-59
2023/02/19 07:16:09;;;;;;;11.10;4.70;;;;;;;3.02;85.85;99826.93;107346;1254;99714;-57
2023/02/19 07:18:56;;;;;;;9.10;4.20;;;;;;;3.03;85.73;99826.66;107354;1254;88181;-61
2023/02/19 07:21:36;;;;;;;11.60;4.70;;;;;;;3.05;85.76;99827.45;107320;1254;94949;-62
2023/02/19 07:24:17;;;;;;;10.10;4.60;;;;;;;3.11;85.74;99836.46;107202;1254;80957;-57
2023/02/19 07:27:03;;;;;;;10.10;4.30;;;;;;;3.16;85.53;99836.31;107357;1254;81327;-57
2023/02/19 07:29:46;;;;;;;14.90;4.30;;;;;;;3.24;85.58;99842.40;107377;1254;98931;-56
2023/02/19 07:32:28;;;;;;;10.60;4.60;;;;;;;3.24;85.44;99836.69;107343;1254;88444;-57
2023/02/19 07:35:09;;;;;;;9.10;4.30;;;;;;;3.30;85.57;99846.08;107376;1254;95823;-63
2023/02/19 07:37:52;;;;;;;11.50;4.30;;;;;;;3.33;85.48;99841.30;107364;1254;79863;-62
2023/02/19 07:40:36;;;;;;;10.30;4.90;;;;;;;3.36;85.33;99838.65;107372;1254;81859;-58
2023/02/19 07:43:16;;;;;;;9.80;4.70;;;;;;;3.39;85.33;99839.29;107336;1258;99524;-58
2023/02/19 07:46:02;;;;;;;9.60;4.50;;;;;;;3.42;85.19;99839.69;107370;1254;89635;-58
2023/02/19 07:48:43;;;;;;;7.20;3.50;;;;;;;3.49;85.58;99837.80;107356;1255;94890;-58
2023/02/19 07:51:26;;;;;;;10.20;4.60;;;;;;;3.65;85.42;99841.32;107385;1254;78984;-59
2023/02/19 07:54:03;;;;;;;8.10;4.30;;;;;;;3.78;85.35;99842.33;107404;1254;82991;-60
2023/02/19 07:56:42;;;;;;;8.70;4.40;;;;;;;3.88;85.06;99842.27;107360;1254;99841;-60
2023/02/19 07:59:26;;;;;;;8.30;4.30;;;;;;;4.03;84.89;99837.30;107388;1254;88870;-59
2023/02/19 08:05:09;;;;;;;11.90;4.50;;;;;;;4.10;84.64;99847.58;107365;1254;79685;-61
2023/02/19 08:07:53;;;;;;;8.90;4.90;;;;;;;4.11;84.36;99844.70;107379;1254;80058;-62
2023/02/19 08:13:38;;;;;;;9.60;4.40;;;;;;;4.06;84.12;99847.68;107352;1255;88902;-62
2023/02/19 08:16:27;;;;;;;10.20;4.40;;;;;;;4.11;83.97;99852.36;107269;1254;93621;-62
2023/02/19 08:19:14;;;;;;;10.10;4.90;;;;;;;4.12;83.73;99850.13;107345;1254;79303;-56
2023/02/19 08:21:53;;;;;;;10.60;4.60;;;;;;;4.13;83.86;99857.57;107364;1254;82249;-56
2023/02/19 08:24:34;;;;;;;12.10;5.10;;;;;;;4.20;83.71;99863.87;107360;1254;98437;-56
2023/02/19 08:27:20;;;;;;;12.80;5.00;;;;;;;4.25;83.69;99864.97;107368;1256;88610;-56
2023/02/19 08:30:04;;;;;;;9.60;4.80;;;;;;;4.28;83.50;99866.38;107300;1254;93546;-61
2023/02/19 08:32:51;;;;;;;10.50;5.00;;;;;;;4.27;83.56;99870.39;107347;1257;81514;-62
2023/02/19 08:35:36;;;;;;;10.60;5.40;;;;;;;4.22;83.21;99874.02;107351;1254;82516;-62
2023/02/19 08:38:15;;;;;;;10.20;4.40;;;;;;;4.22;83.26;99873.10;107391;1254;98373;-61
2023/02/19 08:40:53;;;;;;;12.90;4.80;;;;;;;4.24;83.11;99870.44;107380;1254;88304;-56
2023/02/19 08:43:34;;;;;;;12.20;4.80;;;;;;;4.26;82.98;99878.39;107368;1258;95404;-60
2023/02/19 08:46:14;;;;;;;8.90;4.30;;;;;;;4.29;83.03;99875.01;107376;1255;79188;-60
2023/02/19 08:48:57;;;;;;;10.50;4.80;;;;;;;4.26;82.68;99875.19;107395;1256;82594;-60
2023/02/19 08:51:47;;;;;;;10.80;5.30;;;;;;;4.24;82.72;99880.03;107343;1255;98924;-60
2023/02/19 08:54:31;;;;;;;10.90;5.20;;;;;;;4.24;82.79;99878.30;107401;1254;88213;-62
2023/02/19 08:57:08;;;;;;;11.20;4.90;;;;;;;4.22;82.61;99875.58;107358;1254;92274;-63
2023/02/19 08:59:43;;;;;;;9.60;4.80;;;;;;;4.15;82.77;99876.85;107375;1255;79680;-57
2023/02/19 09:02:30;;;;;;;8.00;4.30;;;;;;;4.24;82.63;99876.33;107365;1254;83468;-57
2023/02/19 09:05:08;;;;;;;10.90;5.00;;;;;;;4.31;82.50;99870.38;107372;1254;99926;-59
2023/02/19 09:07:46;;;;;;;8.40;4.20;;;;;;;4.31;82.40;99873.17;107373;1254;88145;-58
2023/02/19 09:10:29;;;;;;;10.80;4.60;;;;;;;4.39;82.64;99875.88;107353;1254;95611;-59
2023/02/19 09:13:15;;;;;;;10.00;4.80;;;;;;;4.46;82.46;99870.31;107341;1255;79170;-58
2023/02/19 09:16:00;;;;;;;8.50;4.70;;;;;;;4.42;82.15;99870.10;107385;1254;83041;-62
2023/02/19 09:18:44;;;;;;;10.10;4.90;;;;;;;4.46;82.10;99874.95;107376;1255;99562;-59
2023/02/19 09:21:32;;;;;;;9.50;5.20;;;;;;;4.53;81.95;99876.65;107339;1254;88630;-58
2023/02/19 09:24:15;;;;;;;10.60;4.80;;;;;;;4.70;81.93;99878.58;107329;1254;95783;-61
2023/02/19 09:27:00;;;;;;;7.30;4.30;;;;;;;4.83;81.75;99875.38;107336;1253;81021;-62
2023/02/19 09:29:43;;;;;;;7.20;4.70;;;;;;;4.95;81.71;99880.02;107390;1254;81914;-60
2023/02/19 09:32:22;;;;;;;13.30;5.40;;;;;;;5.00;81.43;99877.85;107338;1258;99830;-61
2023/02/19 09:35:00;;;;;;;9.70;5.10;;;;;;;5.05;81.38;99878.52;107382;1255;87332;-57
2023/02/19 09:37:39;;;;;;;7.60;4.50;;;;;;;5.00;80.73;99878.19;107375;1254;95289;-58
2023/02/19 09:40:20;;;;;;;10.40;5.50;;;;;;;4.91;80.87;99881.48;107344;1254;79292;-57
2023/02/19 09:43:00;;;;;;;10.40;5.30;;;;;;;4.94;80.98;99880.60;107362;1255;82521;-59
2023/02/19 09:45:40;;;;;;;11.70;5.10;;;;;;;4.96;80.86;99881.63;107375;1258;98919;-62
2023/02/19 09:48:16;;;;;;;10.90;4.90;;;;;;;5.01;80.34;99882.17;107378;1254;88171;-62
2023/02/19 09:50:58;;;;;;;10.20;5.30;;;;;;;5.07;80.29;99885.66;107333;1255;94426;-56
2023/02/19 09:53:46;;;;;;;7.90;4.60;;;;;;;5.18;80.27;99887.98;107352;1255;80625;-63
2023/02/19 09:56:30;;;;;;;8.20;5.00;;;;;;;5.36;80.06;99889.57;107259;1255;81979;-63
2023/02/19 09:59:20;;;;;;;9.10;4.60;;;;;;;5.62;79.96;99893.09;107356;1255;98313;-58
2023/02/19 10:02:11;;;;;;;11.30;5.20;;;;;;;6.12;80.09;99886.88;107350;1258;88366;-57
2023/02/19 10:04:52;;;;;;;8.40;4.80;;;;;;;6.80;80.21;99880.59;107388;1255;95618;-59
2023/02/19 10:07:42;;;;;;;10.40;5.00;;;;;;;7.28;79.68;99879.43;107313;1254;78121;-57
2023/02/19 10:10:30;;;;;;;9.30;4.70;;;;;;;7.29;78.90;99876.11;107361;1257;83346;-62
2023/02/19 10:13:23;;;;;;;10.80;5.00;;;;;;;7.30;78.46;99876.70;107421;1255;99762;-63
2023/02/19 10:16:16;;;;;;;11.60;4.90;;;;;;;7.18;77.36;99876.33;107332;1254;89645;-59
2023/02/19 10:19:00;;;;;;;9.20;4.10;;;;;;;7.32;77.60;99877.52;107309;1254;96104;-57
2023/02/19 10:21:41;;;;;;;10.80;5.00;;;;;;;7.15;76.91;99878.67;107328;1255;79357;-57
2023/02/19 10:24:29;;;;;;;9.10;4.90;;;;;;;6.99;76.61;99883.02;107334;1254;83717;-56
2023/02/19 10:27:13;;;;;;;11.50;4.80;;;;;;;6.82;76.11;99888.07;107393;1258;97839;-57
2023/02/19 10:29:56;;;;;;;11.70;4.60;;;;;;;6.68;76.24;99892.13;107390;1256;87536;-59
2023/02/19 10:32:58;;;;;;;11.50;5.00;;;;;;;6.70;75.95;99889.98;107373;1255;95250;-58
2023/02/19 10:35:54;;;;;;;8.40;3.90;;;;;;;6.56;75.51;99896.84;107370;1255;77339;-57
2023/02/19 10:38:39;;;;;;;8.50;4.10;;;;;;;6.51;75.66;99903.29;107397;1256;82412;-59
2023/02/19 10:41:25;;;;;;;8.10;3.80;;;;;;;6.34;75.74;99905.41;107342;1256;98331;-57
2023/02/19 10:44:14;;;;;;;7.00;3.50;;;;;;;6.43;75.44;99905.83;107357;1255;88227;-56
2023/02/19 10:47:01;;;;;;;7.20;3.50;;;;;;;6.43;75.36;99906.70;107317;1255;95588;-58
2023/02/19 10:49:44;;;;;;;10.20;4.30;;;;;;;6.43;75.28;99909.21;107359;1254;79163;-56
2023/02/19 10:52:24;;;;;;;9.00;4.20;;;;;;;6.65;75.39;99916.02;107387;1254;82932;-56
2023/02/19 10:55:25;;;;;;;8.50;3.30;;;;;;;6.72;75.18;99917.70;107326;1254;98588;-62
2023/02/19 10:58:24;;;;;;;8.80;3.30;;;;;;;6.73;74.82;99916.60;107290;1254;87988;-61
2023/02/19 11:01:25;;;;;;;10.80;3.40;;;;;;;6.61;74.58;99919.77;107331;1257;93791;-59
2023/02/19 11:04:23;;;;;;;7.40;3.70;;;;;;;6.53;74.47;99923.09;107348;1258;78148;-61
2023/02/19 11:07:08;;;;;;;7.40;3.00;;;;;;;6.45;74.24;99916.39;107313;1255;82824;-63
2023/02/19 11:09:52;;;;;;;8.70;3.50;;;;;;;6.47;74.35;99917.06;107340;1256;97989;-57
2023/02/19 11:12:36;;;;;;;10.60;3.80;;;;;;;6.44;74.21;99918.81;107333;1256;88601;-58
2023/02/19 11:15:30;;;;;;;9.20;3.10;;;;;;;6.39;74.07;99921.39;107374;1255;94713;-66
2023/02/19 11:18:22;;;;;;;9.90;3.20;;;;;;;6.45;74.25;99924.04;107356;1254;79991;-64
2023/02/19 11:21:02;;;;;;;8.50;2.90;;;;;;;6.52;74.11;99925.05;107316;1255;81432;-63
2023/02/19 11:23:48;;;;;;;7.20;2.90;;;;;;;6.56;73.96;99924.22;107373;1255;99353;-59
2023/02/19 11:26:26;;;;;;;6.60;2.70;;;;;;;6.57;73.97;99925.16;107348;1254;88938;-58
2023/02/19 11:29:14;;;;;;;12.50;3.40;;;;;;;6.51;73.55;99920.33;107331;1255;93974;-63
2023/02/19 11:31:52;;;;;;;6.40;2.30;;;;;;;6.47;73.40;99926.80;107443;1258;76885;-62
2023/02/19 11:34:34;;;;;;;7.20;2.80;;;;;;;6.47;73.37;99923.83;107397;1255;81038;-60
2023/02/19 11:37:18;;;;;;;8.80;3.10;;;;;;;6.55;73.30;99925.52;107342;1255;99577;-61
2023/02/19 11:40:00;;;;;;;6.10;2.90;;;;;;;6.58;72.87;99926.86;107372;1255;88081;-57
2023/02/19 11:42:53;;;;;;;6.30;3.00;;;;;;;6.61;72.58;99927.38;107334;1254;94171;-62
2023/02/19 11:45:44;;;;;;;7.60;3.00;;;;;;;6.59;72.46;99925.09;107324;1255;82105;-65
2023/02/19 11:48:40;;;;;;;8.60;3.10;;;;;;;6.56;72.44;99926.57;107350;1258;82845;-64
2023/02/19 11:51:48;;;;;;;6.30;2.70;;;;;;;6.51;72.42;99929.03;107332;1254;99228;-63
2023/02/19 11:54:49;;;;;;;8.10;2.80;;;;;;;6.38;72.26;99930.81;107342;1255;88052;-60
2023/02/19 11:57:42;;;;;;;8.80;3.20;;;;;;;6.40;72.22;99934.11;107298;1256;95089;-60
2023/02/19 12:00:48;;;;;;;7.40;2.70;;;;;;;6.36;72.26;99933.63;107459;1255;79571;-62
2023/02/19 12:03:50;;;;;;;5.50;2.50;;;;;;;6.37;72.05;99935.64;108020;1255;82219;-57
2023/02/19 12:06:35;;;;;;;9.70;3.20;;;;;;;6.43;72.19;99937.66;107361;1255;100003;-57
2023/02/19 12:09:39;;;;;;;7.90;2.90;;;;;;;6.56;71.81;99941.39;107353;1254;88130;-60
2023/02/19 12:12:35;;;;;;;7.50;3.10;;;;;;;6.71;71.88;99941.30;107301;1255;95635;-59
2023/02/19 12:15:32;;;;;;;9.10;2.70;;;;;;;6.78;71.83;99940.83;107357;1254;77840;-64
2023/02/19 12:18:39;;;;;;;7.00;2.70;;;;;;;6.79;70.96;99939.05;107306;1254;83355;-64
2023/02/19 12:21:37;;;;;;;9.90;3.30;;;;;;;6.80;70.60;99945.60;107220;1258;98049;-61
2023/02/19 12:24:36;;;;;;;6.90;3.00;;;;;;;6.69;70.33;99945.66;107382;1254;89005;-64
2023/02/19 12:27:30;;;;;;;9.90;2.90;;;;;;;6.44;70.18;99959.92;107309;1255;95903;-65
2023/02/19 12:30:42;;;;;;;7.60;3.60;;;;;;;6.19;70.33;99964.23;107358;1255;77930;-59
2023/02/19 12:34:01;;;;;;;8.10;2.70;;;;;;;6.01;70.58;99970.87;107330;1255;82586;-60
2023/02/19 12:36:51;;;;;;;7.50;2.80;;;;;;;5.76;70.50;99978.67;107329;1255;99757;-61
2023/02/19 12:39:43;;;;;;;10.30;3.40;;;;;;;5.73;70.97;99979.27;107345;1258;88794;-63
2023/02/19 12:42:33;;;;;;;5.60;2.70;;;;;;;5.67;70.96;99983.09;107307;1258;96351;-63
2023/02/19 12:45:20;;;;;;;7.20;2.80;;;;;;;5.62;70.87;99985.42;107363;1255;78084;-62
2023/02/19 12:48:06;;;;;;;7.00;2.50;;;;;;;5.45;71.07;99981.67;107355;1258;82599;-63
2023/02/19 12:50:52;;;;;;;5.30;2.70;;;;;;;5.34;71.17;99984.88;107397;1255;99172;-61
2023/02/19 12:53:40;;;;;;;6.30;2.60;;;;;;;5.30;71.06;99984.27;107118;1254;86919;-62
2023/02/19 12:56:26;;;;;;;7.60;3.00;;;;;;;5.28;71.19;99987.38;107348;1253;93270;-60
2023/02/19 12:59:05;;;;;;;7.80;3.20;;;;;;;5.34;71.22;99986.82;107319;1254;78717;-64
2023/02/19 13:01:57;;;;;;;7.40;2.50;;;;;;;5.46;71.37;99985.42;107329;1258;83455;-62
2023/02/19 13:04:46;;;;;;;5.30;2.50;;;;;;;5.52;70.82;99987.93;107301;1255;98057;-59
2023/02/19 13:07:28;;;;;;;7.80;2.50;;;;;;;5.55;70.99;99989.38;107305;1258;88464;-58
2023/02/19 13:10:20;;;;;;;5.40;2.90;;;;;;;5.53;70.82;99984.69;107344;1255;95066;-62
2023/02/19 13:13:02;;;;;;;6.60;2.50;;;;;;;5.57;70.89;99991.76;107344;1254;79070;-61
2023/02/19 13:15:42;;;;;;;6.50;2.80;;;;;;;5.62;71.06;99993.42;107326;1255;83385;-56
2023/02/19 13:18:30;;;;;;;10.40;3.10;;;;;;;5.74;70.90;99991.41;107333;1256;99246;-57
2023/02/19 13:21:11;;;;;;;9.50;3.20;;;;;;;5.82;70.97;99987.29;107316;1256;89473;-57
2023/02/19 13:24:02;;;;;;;7.30;2.60;;;;;;;5.79;70.97;99990.34;107325;1255;94337;-58